sensor_id;sensor_type;location;lat;lon;timestamp;P1;durP1;ratioP1;P2;durP2;ratioP2
92;SDS011;16232;48.800;9.002;2023-09-18T00:02:36;4.10;;;3.57;;
92;SDS011;16232;48.800;9.002;2023-09-18T00:05:22;3.60;;;3.30;;
92;SDS011;16232;48.800;9.002;2023-09-18T00:08:08;4.87;;;3.70;;
92;SDS011;16232;48.800;9.002;2023-09-18T00:10:54;5.43;;;3.93;;
92;SDS011;16232;48.800;9.002;2023-09-18T00:13:40;4.83;;;3.40;;
92;SDS011;16232;48.800;9.002;2023-09-18T00:16:27;4.60;;;3.40;;
92;SDS011;16232;48.800;9.002;2023-09-18T00:19:13;5.80;;;3.67;;
92;SDS011;16232;48.800;9.002;2023-09-18T00:21:59;4.30;;;3.90;;
92;SDS011;16232;48.800;9.002;2023-09-18T00:24:45;4.93;;;4.07;;
92;SDS011;16232;48.800;9.002;2023-09-18T00:27:31;4.20;;;3.80;;
92;SDS011;16232;48.800;9.002;2023-09-18T00:30:17;3.77;;;3.40;;
92;SDS011;16232;48.800;9.002;2023-09-18T00:33:05;5.93;;;3.77;;
92;SDS011;16232;48.800;9.002;2023-09-18T00:35:51;4.07;;;3.67;;
92;SDS011;16232;48.800;9.002;2023-09-18T00:38:37;4.37;;;3.97;;
92;SDS011;16232;48.800;9.002;2023-09-18T00:41:23;5.10;;;3.67;;
92;SDS011;16232;48.800;9.002;2023-09-18T00:44:08;5.90;;;4.23;;
92;SDS011;16232;48.800;9.002;2023-09-18T00:46:54;4.17;;;3.67;;
92;SDS011;16232;48.800;9.002;2023-09-18T00:49:43;3.27;;;2.93;;
92;SDS011;16232;48.800;9.002;2023-09-18T00:52:30;4.90;;;3.20;;
92;SDS011;16232;48.800;9.002;2023-09-18T00:55:17;5.53;;;3.70;;
92;SDS011;16232;48.800;9.002;2023-09-18T00:58:03;5.43;;;3.63;;
92;SDS011;16232;48.800;9.002;2023-09-18T01:00:49;4.07;;;3.17;;
92;SDS011;16232;48.800;9.002;2023-09-18T01:03:35;4.73;;;3.07;;
92;SDS011;16232;48.800;9.002;2023-09-18T01:06:24;4.80;;;3.10;;
92;SDS011;16232;48.800;9.002;2023-09-18T01:09:14;3.60;;;3.10;;
92;SDS011;16232;48.800;9.002;2023-09-18T01:12:01;3.90;;;3.40;;
92;SDS011;16232;48.800;9.002;2023-09-18T01:14:50;4.03;;;3.37;;
92;SDS011;16232;48.800;9.002;2023-09-18T01:17:37;4.67;;;3.60;;
92;SDS011;16232;48.800;9.002;2023-09-18T01:20:23;4.20;;;3.30;;
92;SDS011;16232;48.800;9.002;2023-09-18T01:23:12;3.80;;;3.50;;
92;SDS011;16232;48.800;9.002;2023-09-18T01:25:58;5.13;;;3.60;;
92;SDS011;16232;48.800;9.002;2023-09-18T01:28:44;3.87;;;3.37;;
92;SDS011;16232;48.800;9.002;2023-09-18T01:31:30;4.87;;;3.53;;
92;SDS011;16232;48.800;9.002;2023-09-18T01:34:16;4.20;;;3.80;;
92;SDS011;16232;48.800;9.002;2023-09-18T01:37:02;4.20;;;3.20;;
92;SDS011;16232;48.800;9.002;2023-09-18T01:39:50;3.63;;;3.07;;
92;SDS011;16232;48.800;9.002;2023-09-18T01:42:37;3.77;;;3.47;;
92;SDS011;16232;48.800;9.002;2023-09-18T01:45:23;4.10;;;3.10;;
92;SDS011;16232;48.800;9.002;2023-09-18T01:48:09;5.27;;;2.70;;
92;SDS011;16232;48.800;9.002;2023-09-18T01:50:55;6.77;;;3.10;;
92;SDS011;16232;48.800;9.002;2023-09-18T01:53:41;4.30;;;3.20;;
92;SDS011;16232;48.800;9.002;2023-09-18T01:56:28;5.57;;;2.60;;
92;SDS011;16232;48.800;9.002;2023-09-18T01:59:14;5.17;;;3.10;;
92;SDS011;16232;48.800;9.002;2023-09-18T02:02:00;5.50;;;2.73;;
92;SDS011;16232;48.800;9.002;2023-09-18T02:04:47;5.63;;;2.90;;
92;SDS011;16232;48.800;9.002;2023-09-18T02:07:33;6.60;;;3.33;;
92;SDS011;16232;48.800;9.002;2023-09-18T02:10:19;7.40;;;3.67;;
92;SDS011;16232;48.800;9.002;2023-09-18T02:13:06;6.43;;;3.63;;
92;SDS011;16232;48.800;9.002;2023-09-18T02:15:53;8.77;;;4.13;;
92;SDS011;16232;48.800;9.002;2023-09-18T02:18:38;8.97;;;3.80;;
92;SDS011;16232;48.800;9.002;2023-09-18T02:21:24;9.40;;;3.83;;
92;SDS011;16232;48.800;9.002;2023-09-18T02:24:10;8.90;;;4.07;;
92;SDS011;16232;48.800;9.002;2023-09-18T02:26:56;10.87;;;4.93;;
92;SDS011;16232;48.800;9.002;2023-09-18T02:29:43;8.97;;;4.40;;
92;SDS011;16232;48.800;9.002;2023-09-18T02:32:29;8.33;;;4.47;;
92;SDS011;16232;48.800;9.002;2023-09-18T02:35:16;5.70;;;3.17;;
92;SDS011;16232;48.800;9.002;2023-09-18T02:38:02;8.53;;;4.87;;
92;SDS011;16232;48.800;9.002;2023-09-18T02:40:48;8.47;;;4.43;;
92;SDS011;16232;48.800;9.002;2023-09-18T02:43:34;6.07;;;4.03;;
92;SDS011;16232;48.800;9.002;2023-09-18T02:46:23;10.43;;;4.43;;
92;SDS011;16232;48.800;9.002;2023-09-18T02:49:09;5.83;;;3.60;;
92;SDS011;16232;48.800;9.002;2023-09-18T02:51:55;8.20;;;4.60;;
92;SDS011;16232;48.800;9.002;2023-09-18T02:54:40;7.63;;;4.90;;
92;SDS011;16232;48.800;9.002;2023-09-18T02:57:26;8.43;;;4.40;;
92;SDS011;16232;48.800;9.002;2023-09-18T03:00:12;7.43;;;4.60;;
92;SDS011;16232;48.800;9.002;2023-09-18T03:03:00;8.87;;;5.33;;
92;SDS011;16232;48.800;9.002;2023-09-18T03:05:46;7.87;;;4.90;;
92;SDS011;16232;48.800;9.002;2023-09-18T03:08:32;8.87;;;5.53;;
92;SDS011;16232;48.800;9.002;2023-09-18T03:11:18;9.67;;;5.00;;
92;SDS011;16232;48.800;9.002;2023-09-18T03:14:04;6.50;;;4.57;;
92;SDS011;16232;48.800;9.002;2023-09-18T03:16:50;8.83;;;5.07;;
92;SDS011;16232;48.800;9.002;2023-09-18T03:19:37;7.70;;;4.80;;
92;SDS011;16232;48.800;9.002;2023-09-18T03:22:23;10.53;;;5.00;;
92;SDS011;16232;48.800;9.002;2023-09-18T03:25:09;8.43;;;4.53;;
92;SDS011;16232;48.800;9.002;2023-09-18T03:27:55;9.00;;;5.03;;
92;SDS011;16232;48.800;9.002;2023-09-18T03:30:41;6.53;;;4.80;;
92;SDS011;16232;48.800;9.002;2023-09-18T03:33:27;6.83;;;5.10;;
92;SDS011;16232;48.800;9.002;2023-09-18T03:36:14;6.00;;;4.93;;
92;SDS011;16232;48.800;9.002;2023-09-18T03:39:00;6.93;;;4.47;;
92;SDS011;16232;48.800;9.002;2023-09-18T03:41:47;9.70;;;5.47;;
92;SDS011;16232;48.800;9.002;2023-09-18T03:44:33;6.80;;;5.07;;
92;SDS011;16232;48.800;9.002;2023-09-18T03:47:19;8.93;;;5.73;;
92;SDS011;16232;48.800;9.002;2023-09-18T03:50:05;7.93;;;4.93;;
92;SDS011;16232;48.800;9.002;2023-09-18T03:52:52;11.20;;;5.40;;
92;SDS011;16232;48.800;9.002;2023-09-18T03:55:38;6.37;;;4.53;;
92;SDS011;16232;48.800;9.002;2023-09-18T03:58:24;9.43;;;5.07;;
92;SDS011;16232;48.800;9.002;2023-09-18T04:01:10;8.17;;;4.67;;
92;SDS011;16232;48.800;9.002;2023-09-18T04:03:56;7.13;;;4.73;;
92;SDS011;16232;48.800;9.002;2023-09-18T04:06:43;11.50;;;4.27;;
92;SDS011;16232;48.800;9.002;2023-09-18T04:09:31;11.93;;;4.27;;
92;SDS011;16232;48.800;9.002;2023-09-18T04:12:18;8.90;;;4.23;;
92;SDS011;16232;48.800;9.002;2023-09-18T04:15:04;8.27;;;4.27;;
92;SDS011;16232;48.800;9.002;2023-09-18T04:17:50;8.87;;;4.87;;
92;SDS011;16232;48.800;9.002;2023-09-18T04:20:36;8.00;;;4.73;;
92;SDS011;16232;48.800;9.002;2023-09-18T04:23:23;10.10;;;4.70;;
92;SDS011;16232;48.800;9.002;2023-09-18T04:26:10;5.93;;;4.60;;
92;SDS011;16232;48.800;9.002;2023-09-18T04:28:59;11.97;;;4.70;;
92;SDS011;16232;48.800;9.002;2023-09-18T04:31:46;8.67;;;4.60;;
92;SDS011;16232;48.800;9.002;2023-09-18T04:34:32;9.73;;;4.50;;
92;SDS011;16232;48.800;9.002;2023-09-18T04:37:19;8.77;;;4.60;;
92;SDS011;16232;48.800;9.002;2023-09-18T04:40:05;6.87;;;4.37;;
92;SDS011;16232;48.800;9.002;2023-09-18T04:42:56;13.70;;;5.27;;
92;SDS011;16232;48.800;9.002;2023-09-18T04:45:42;7.03;;;4.33;;
92;SDS011;16232;48.800;9.002;2023-09-18T04:48:28;8.53;;;4.30;;
92;SDS011;16232;48.800;9.002;2023-09-18T04:51:14;6.77;;;4.03;;
92;SDS011;16232;48.800;9.002;2023-09-18T04:54:00;6.97;;;4.47;;
92;SDS011;16232;48.800;9.002;2023-09-18T04:56:45;8.80;;;4.90;;
92;SDS011;16232;48.800;9.002;2023-09-18T04:59:32;6.63;;;4.40;;
92;SDS011;16232;48.800;9.002;2023-09-18T05:02:19;9.20;;;3.93;;
92;SDS011;16232;48.800;9.002;2023-09-18T05:05:05;9.00;;;4.10;;
92;SDS011;16232;48.800;9.002;2023-09-18T05:07:52;9.67;;;4.37;;
92;SDS011;16232;48.800;9.002;2023-09-18T05:10:38;7.93;;;4.67;;
92;SDS011;16232;48.800;9.002;2023-09-18T05:13:24;9.27;;;5.13;;
92;SDS011;16232;48.800;9.002;2023-09-18T05:16:12;7.83;;;5.47;;
92;SDS011;16232;48.800;9.002;2023-09-18T05:18:58;13.83;;;5.23;;
92;SDS011;16232;48.800;9.002;2023-09-18T05:21:44;11.33;;;5.53;;
92;SDS011;16232;48.800;9.002;2023-09-18T05:24:30;7.33;;;5.00;;
92;SDS011;16232;48.800;9.002;2023-09-18T05:27:16;7.17;;;4.67;;
92;SDS011;16232;48.800;9.002;2023-09-18T05:30:01;12.33;;;5.67;;
92;SDS011;16232;48.800;9.002;2023-09-18T05:32:50;6.30;;;3.70;;
92;SDS011;16232;48.800;9.002;2023-09-18T05:35:39;6.50;;;4.37;;
92;SDS011;16232;48.800;9.002;2023-09-18T05:38:25;9.57;;;7.47;;
92;SDS011;16232;48.800;9.002;2023-09-18T05:41:11;7.77;;;5.60;;
92;SDS011;16232;48.800;9.002;2023-09-18T05:43:57;9.03;;;4.30;;
92;SDS011;16232;48.800;9.002;2023-09-18T05:46:44;9.17;;;3.20;;
92;SDS011;16232;48.800;9.002;2023-09-18T05:49:32;7.37;;;3.93;;
92;SDS011;16232;48.800;9.002;2023-09-18T05:52:18;7.23;;;3.60;;
92;SDS011;16232;48.800;9.002;2023-09-18T05:55:06;11.70;;;3.97;;
92;SDS011;16232;48.800;9.002;2023-09-18T05:57:52;8.40;;;2.90;;
92;SDS011;16232;48.800;9.002;2023-09-18T06:00:38;6.73;;;2.90;;
92;SDS011;16232;48.800;9.002;2023-09-18T06:03:23;6.90;;;3.03;;
92;SDS011;16232;48.800;9.002;2023-09-18T06:06:10;6.37;;;2.97;;
92;SDS011;16232;48.800;9.002;2023-09-18T06:08:57;6.30;;;2.63;;
92;SDS011;16232;48.800;9.002;2023-09-18T06:11:42;4.80;;;2.67;;
92;SDS011;16232;48.800;9.002;2023-09-18T06:14:29;6.10;;;2.40;;
92;SDS011;16232;48.800;9.002;2023-09-18T06:17:15;8.20;;;2.70;;
92;SDS011;16232;48.800;9.002;2023-09-18T06:20:01;7.17;;;2.60;;
92;SDS011;16232;48.800;9.002;2023-09-18T06:22:49;7.37;;;3.17;;
92;SDS011;16232;48.800;9.002;2023-09-18T06:25:35;5.20;;;2.43;;
92;SDS011;16232;48.800;9.002;2023-09-18T06:28:21;4.80;;;2.13;;
92;SDS011;16232;48.800;9.002;2023-09-18T06:31:07;5.33;;;2.33;;
92;SDS011;16232;48.800;9.002;2023-09-18T06:33:54;4.83;;;2.60;;
92;SDS011;16232;48.800;9.002;2023-09-18T06:36:40;5.70;;;2.67;;
92;SDS011;16232;48.800;9.002;2023-09-18T06:39:27;5.20;;;2.47;;
92;SDS011;16232;48.800;9.002;2023-09-18T06:42:13;7.03;;;2.20;;
92;SDS011;16232;48.800;9.002;2023-09-18T06:44:59;7.50;;;2.70;;
92;SDS011;16232;48.800;9.002;2023-09-18T06:47:45;7.63;;;2.30;;
92;SDS011;16232;48.800;9.002;2023-09-18T06:50:31;3.43;;;2.00;;
92;SDS011;16232;48.800;9.002;2023-09-18T06:53:17;5.60;;;2.30;;
92;SDS011;16232;48.800;9.002;2023-09-18T06:56:05;7.87;;;2.17;;
92;SDS011;16232;48.800;9.002;2023-09-18T06:58:53;6.07;;;2.60;;
92;SDS011;16232;48.800;9.002;2023-09-18T07:01:39;7.17;;;2.43;;
92;SDS011;16232;48.800;9.002;2023-09-18T07:04:25;7.00;;;1.53;;
92;SDS011;16232;48.800;9.002;2023-09-18T07:07:11;4.90;;;2.00;;
92;SDS011;16232;48.800;9.002;2023-09-18T07:09:57;6.23;;;2.10;;
92;SDS011;16232;48.800;9.002;2023-09-18T07:12:44;3.03;;;1.70;;
92;SDS011;16232;48.800;9.002;2023-09-18T07:15:30;5.17;;;1.90;;
92;SDS011;16232;48.800;9.002;2023-09-18T07:18:17;5.00;;;1.97;;
92;SDS011;16232;48.800;9.002;2023-09-18T07:21:02;12.10;;;2.57;;
92;SDS011;16232;48.800;9.002;2023-09-18T07:23:48;4.23;;;1.60;;
92;SDS011;16232;48.800;9.002;2023-09-18T07:26:35;4.47;;;1.40;;
92;SDS011;16232;48.800;9.002;2023-09-18T07:29:22;3.67;;;1.00;;
92;SDS011;16232;48.800;9.002;2023-09-18T07:32:08;3.73;;;1.50;;
92;SDS011;16232;48.800;9.002;2023-09-18T07:34:55;5.67;;;1.40;;
92;SDS011;16232;48.800;9.002;2023-09-18T07:37:41;7.33;;;1.60;;
92;SDS011;16232;48.800;9.002;2023-09-18T07:40:28;6.77;;;1.40;;
92;SDS011;16232;48.800;9.002;2023-09-18T07:43:14;3.30;;;1.37;;
92;SDS011;16232;48.800;9.002;2023-09-18T07:46:01;3.33;;;1.40;;
92;SDS011;16232;48.800;9.002;2023-09-18T07:48:48;3.23;;;1.43;;
92;SDS011;16232;48.800;9.002;2023-09-18T07:51:34;1.47;;;1.00;;
92;SDS011;16232;48.800;9.002;2023-09-18T07:54:20;2.03;;;1.00;;
92;SDS011;16232;48.800;9.002;2023-09-18T07:57:06;2.60;;;0.90;;
92;SDS011;16232;48.800;9.002;2023-09-18T07:59:53;4.87;;;1.20;;
92;SDS011;16232;48.800;9.002;2023-09-18T08:02:41;3.87;;;0.87;;
92;SDS011;16232;48.800;9.002;2023-09-18T08:05:27;2.07;;;1.00;;
92;SDS011;16232;48.800;9.002;2023-09-18T08:08:14;2.70;;;1.10;;
92;SDS011;16232;48.800;9.002;2023-09-18T08:11:06;2.73;;;1.30;;
92;SDS011;16232;48.800;9.002;2023-09-18T08:13:53;1.83;;;0.90;;
92;SDS011;16232;48.800;9.002;2023-09-18T08:16:38;2.20;;;0.90;;
92;SDS011;16232;48.800;9.002;2023-09-18T08:19:26;1.87;;;0.70;;
92;SDS011;16232;48.800;9.002;2023-09-18T08:22:12;2.00;;;0.97;;
92;SDS011;16232;48.800;9.002;2023-09-18T08:25:00;2.03;;;0.87;;
92;SDS011;16232;48.800;9.002;2023-09-18T08:27:46;2.40;;;0.67;;
92;SDS011;16232;48.800;9.002;2023-09-18T08:30:32;1.97;;;1.13;;
92;SDS011;16232;48.800;9.002;2023-09-18T08:33:20;5.00;;;1.10;;
92;SDS011;16232;48.800;9.002;2023-09-18T08:36:07;3.60;;;1.10;;
92;SDS011;16232;48.800;9.002;2023-09-18T08:38:53;2.90;;;1.13;;
92;SDS011;16232;48.800;9.002;2023-09-18T08:41:41;5.40;;;1.33;;
92;SDS011;16232;48.800;9.002;2023-09-18T08:44:27;5.10;;;1.20;;
92;SDS011;16232;48.800;9.002;2023-09-18T08:47:14;2.90;;;1.17;;
92;SDS011;16232;48.800;9.002;2023-09-18T08:50:00;3.17;;;1.20;;
92;SDS011;16232;48.800;9.002;2023-09-18T08:52:48;4.40;;;1.30;;
92;SDS011;16232;48.800;9.002;2023-09-18T08:55:35;4.20;;;1.50;;
92;SDS011;16232;48.800;9.002;2023-09-18T08:58:21;2.50;;;1.40;;
92;SDS011;16232;48.800;9.002;2023-09-18T09:01:07;3.23;;;1.67;;
92;SDS011;16232;48.800;9.002;2023-09-18T09:03:53;7.57;;;1.77;;
92;SDS011;16232;48.800;9.002;2023-09-18T09:06:39;5.63;;;1.30;;
92;SDS011;16232;48.800;9.002;2023-09-18T09:09:26;6.90;;;1.40;;
92;SDS011;16232;48.800;9.002;2023-09-18T09:12:13;3.27;;;2.03;;
92;SDS011;16232;48.800;9.002;2023-09-18T09:15:01;4.90;;;1.53;;
92;SDS011;16232;48.800;9.002;2023-09-18T09:17:48;2.80;;;2.10;;
92;SDS011;16232;48.800;9.002;2023-09-18T09:20:35;2.60;;;1.77;;
92;SDS011;16232;48.800;9.002;2023-09-18T09:23:21;3.07;;;1.60;;
92;SDS011;16232;48.800;9.002;2023-09-18T09:26:13;3.93;;;1.60;;
92;SDS011;16232;48.800;9.002;2023-09-18T09:29:02;6.27;;;1.70;;
92;SDS011;16232;48.800;9.002;2023-09-18T09:35:08;4.73;;;2.10;;
92;SDS011;16232;48.800;9.002;2023-09-18T09:37:56;6.83;;;1.83;;
92;SDS011;16232;48.800;9.002;2023-09-18T09:40:42;5.80;;;1.97;;
92;SDS011;16232;48.800;9.002;2023-09-18T09:43:31;4.67;;;2.47;;
92;SDS011;16232;48.800;9.002;2023-09-18T09:46:17;10.10;;;2.90;;
92;SDS011;16232;48.800;9.002;2023-09-18T09:49:05;8.73;;;2.50;;
92;SDS011;16232;48.800;9.002;2023-09-18T09:51:51;7.67;;;3.13;;
92;SDS011;16232;48.800;9.002;2023-09-18T09:54:38;7.50;;;2.50;;
92;SDS011;16232;48.800;9.002;2023-09-18T09:57:25;17.73;;;3.37;;
92;SDS011;16232;48.800;9.002;2023-09-18T10:00:13;9.20;;;2.13;;
92;SDS011;16232;48.800;9.002;2023-09-18T10:03:10;4.70;;;1.90;;
92;SDS011;16232;48.800;9.002;2023-09-18T10:05:38;3.73;;;1.10;;
92;SDS011;16232;48.800;9.002;2023-09-18T10:08:07;2.67;;;1.20;;
92;SDS011;16232;48.800;9.002;2023-09-18T10:10:35;2.13;;;1.50;;
92;SDS011;16232;48.800;9.002;2023-09-18T10:13:10;3.53;;;1.80;;
92;SDS011;16232;48.800;9.002;2023-09-18T10:15:40;8.47;;;2.10;;
92;SDS011;16232;48.800;9.002;2023-09-18T10:18:13;4.50;;;1.80;;
92;SDS011;16232;48.800;9.002;2023-09-18T10:20:44;4.13;;;1.90;;
92;SDS011;16232;48.800;9.002;2023-09-18T10:23:15;4.03;;;1.77;;
92;SDS011;16232;48.800;9.002;2023-09-18T10:25:49;3.87;;;1.90;;
92;SDS011;16232;48.800;9.002;2023-09-18T10:28:20;5.23;;;1.63;;
92;SDS011;16232;48.800;9.002;2023-09-18T10:30:50;4.90;;;1.80;;
92;SDS011;16232;48.800;9.002;2023-09-18T10:33:18;3.57;;;1.60;;
92;SDS011;16232;48.800;9.002;2023-09-18T10:35:47;3.17;;;1.77;;
92;SDS011;16232;48.800;9.002;2023-09-18T10:38:15;2.77;;;1.77;;
92;SDS011;16232;48.800;9.002;2023-09-18T10:40:43;5.17;;;1.80;;
92;SDS011;16232;48.800;9.002;2023-09-18T10:43:13;4.00;;;1.77;;
92;SDS011;16232;48.800;9.002;2023-09-18T10:45:43;2.70;;;1.70;;
92;SDS011;16232;48.800;9.002;2023-09-18T10:48:12;10.33;;;2.07;;
92;SDS011;16232;48.800;9.002;2023-09-18T10:50:41;8.80;;;2.20;;
92;SDS011;16232;48.800;9.002;2023-09-18T10:53:11;4.40;;;1.87;;
92;SDS011;16232;48.800;9.002;2023-09-18T10:55:39;8.17;;;1.90;;
92;SDS011;16232;48.800;9.002;2023-09-18T10:58:07;3.73;;;2.40;;
92;SDS011;16232;48.800;9.002;2023-09-18T11:00:34;4.47;;;2.47;;
92;SDS011;16232;48.800;9.002;2023-09-18T11:03:09;4.57;;;2.00;;
92;SDS011;16232;48.800;9.002;2023-09-18T11:05:38;4.67;;;1.57;;
92;SDS011;16232;48.800;9.002;2023-09-18T11:08:24;2.00;;;1.43;;
92;SDS011;16232;48.800;9.002;2023-09-18T11:10:56;2.57;;;1.27;;
92;SDS011;16232;48.800;9.002;2023-09-18T11:13:31;5.93;;;2.87;;
92;SDS011;16232;48.800;9.002;2023-09-18T11:15:59;5.20;;;1.70;;
92;SDS011;16232;48.800;9.002;2023-09-18T11:18:32;2.63;;;1.10;;
92;SDS011;16232;48.800;9.002;2023-09-18T11:21:11;3.43;;;1.40;;
92;SDS011;16232;48.800;9.002;2023-09-18T11:23:39;3.13;;;1.50;;
92;SDS011;16232;48.800;9.002;2023-09-18T11:26:08;2.87;;;1.90;;
92;SDS011;16232;48.800;9.002;2023-09-18T11:28:36;4.60;;;1.90;;
92;SDS011;16232;48.800;9.002;2023-09-18T11:31:04;2.40;;;1.53;;
92;SDS011;16232;48.800;9.002;2023-09-18T11:33:32;4.90;;;1.80;;
92;SDS011;16232;48.800;9.002;2023-09-18T11:36:02;4.43;;;1.53;;
92;SDS011;16232;48.800;9.002;2023-09-18T11:38:31;2.13;;;1.60;;
92;SDS011;16232;48.800;9.002;2023-09-18T11:41:01;4.03;;;1.60;;
92;SDS011;16232;48.800;9.002;2023-09-18T11:43:46;5.37;;;4.13;;
92;SDS011;16232;48.800;9.002;2023-09-18T11:46:17;2.13;;;1.30;;
92;SDS011;16232;48.800;9.002;2023-09-18T11:48:45;2.27;;;1.30;;
92;SDS011;16232;48.800;9.002;2023-09-18T11:51:19;3.03;;;1.50;;
92;SDS011;16232;48.800;9.002;2023-09-18T11:53:49;3.77;;;1.53;;
92;SDS011;16232;48.800;9.002;2023-09-18T11:56:17;3.87;;;1.43;;
92;SDS011;16232;48.800;9.002;2023-09-18T11:58:44;4.63;;;1.30;;
92;SDS011;16232;48.800;9.002;2023-09-18T12:01:12;3.67;;;1.43;;
92;SDS011;16232;48.800;9.002;2023-09-18T12:03:40;2.10;;;1.40;;
92;SDS011;16232;48.800;9.002;2023-09-18T12:06:08;2.73;;;1.57;;
92;SDS011;16232;48.800;9.002;2023-09-18T12:08:38;3.27;;;1.43;;
92;SDS011;16232;48.800;9.002;2023-09-18T12:11:07;6.23;;;1.83;;
92;SDS011;16232;48.800;9.002;2023-09-18T12:13:34;8.57;;;1.53;;
92;SDS011;16232;48.800;9.002;2023-09-18T12:16:03;2.63;;;1.27;;
92;SDS011;16232;48.800;9.002;2023-09-18T12:18:31;2.50;;;1.30;;
92;SDS011;16232;48.800;9.002;2023-09-18T12:21:00;7.00;;;1.57;;
92;SDS011;16232;48.800;9.002;2023-09-18T12:23:36;4.97;;;1.50;;
92;SDS011;16232;48.800;9.002;2023-09-18T12:26:05;3.13;;;1.40;;
92;SDS011;16232;48.800;9.002;2023-09-18T12:28:34;4.73;;;1.23;;
92;SDS011;16232;48.800;9.002;2023-09-18T12:31:02;4.00;;;1.20;;
92;SDS011;16232;48.800;9.002;2023-09-18T12:33:33;3.00;;;1.20;;
92;SDS011;16232;48.800;9.002;2023-09-18T12:36:01;5.80;;;1.40;;
92;SDS011;16232;48.800;9.002;2023-09-18T12:38:30;8.73;;;1.90;;
92;SDS011;16232;48.800;9.002;2023-09-18T12:40:57;3.60;;;1.70;;
92;SDS011;16232;48.800;9.002;2023-09-18T12:43:37;6.00;;;1.57;;
92;SDS011;16232;48.800;9.002;2023-09-18T12:46:05;2.10;;;1.00;;
92;SDS011;16232;48.800;9.002;2023-09-18T12:48:36;4.63;;;1.50;;
92;SDS011;16232;48.800;9.002;2023-09-18T12:51:04;5.20;;;1.63;;
92;SDS011;16232;48.800;9.002;2023-09-18T12:53:31;1.83;;;1.00;;
92;SDS011;16232;48.800;9.002;2023-09-18T12:56:06;2.33;;;1.10;;
92;SDS011;16232;48.800;9.002;2023-09-18T12:58:33;2.43;;;0.83;;
92;SDS011;16232;48.800;9.002;2023-09-18T13:01:05;1.83;;;1.00;;
92;SDS011;16232;48.800;9.002;2023-09-18T13:03:35;1.20;;;0.87;;
92;SDS011;16232;48.800;9.002;2023-09-18T13:06:12;1.80;;;0.90;;
92;SDS011;16232;48.800;9.002;2023-09-18T13:08:39;3.10;;;1.00;;
92;SDS011;16232;48.800;9.002;2023-09-18T13:11:07;2.10;;;1.13;;
92;SDS011;16232;48.800;9.002;2023-09-18T13:13:36;1.70;;;0.90;;
92;SDS011;16232;48.800;9.002;2023-09-18T13:16:06;4.07;;;1.07;;
92;SDS011;16232;48.800;9.002;2023-09-18T13:18:34;3.10;;;1.20;;
92;SDS011;16232;48.800;9.002;2023-09-18T13:21:08;1.73;;;0.90;;
92;SDS011;16232;48.800;9.002;2023-09-18T13:23:36;3.43;;;1.40;;
92;SDS011;16232;48.800;9.002;2023-09-18T13:26:04;1.33;;;0.80;;
92;SDS011;16232;48.800;9.002;2023-09-18T13:28:32;1.33;;;0.70;;
92;SDS011;16232;48.800;9.002;2023-09-18T13:31:01;4.53;;;1.30;;
92;SDS011;16232;48.800;9.002;2023-09-18T13:33:37;3.50;;;1.00;;
92;SDS011;16232;48.800;9.002;2023-09-18T13:36:05;2.13;;;1.30;;
92;SDS011;16232;48.800;9.002;2023-09-18T13:38:33;2.67;;;0.90;;
92;SDS011;16232;48.800;9.002;2023-09-18T13:41:00;1.33;;;0.90;;
92;SDS011;16232;48.800;9.002;2023-09-18T13:43:30;2.97;;;1.20;;
92;SDS011;16232;48.800;9.002;2023-09-18T13:46:00;4.53;;;0.80;;
92;SDS011;16232;48.800;9.002;2023-09-18T13:48:29;2.37;;;0.90;;
92;SDS011;16232;48.800;9.002;2023-09-18T13:50:59;4.87;;;1.43;;
92;SDS011;16232;48.800;9.002;2023-09-18T13:53:28;3.60;;;1.40;;
92;SDS011;16232;48.800;9.002;2023-09-18T13:55:56;3.00;;;1.27;;
92;SDS011;16232;48.800;9.002;2023-09-18T13:58:23;3.53;;;1.20;;
92;SDS011;16232;48.800;9.002;2023-09-18T14:00:50;3.33;;;0.97;;
92;SDS011;16232;48.800;9.002;2023-09-18T14:03:19;2.13;;;1.20;;
92;SDS011;16232;48.800;9.002;2023-09-18T14:05:48;2.87;;;0.97;;
92;SDS011;16232;48.800;9.002;2023-09-18T14:08:17;2.93;;;1.00;;
92;SDS011;16232;48.800;9.002;2023-09-18T14:10:44;2.57;;;0.97;;
92;SDS011;16232;48.800;9.002;2023-09-18T14:13:12;1.37;;;1.20;;
92;SDS011;16232;48.800;9.002;2023-09-18T14:15:39;1.53;;;0.90;;
92;SDS011;16232;48.800;9.002;2023-09-18T14:18:06;4.87;;;1.10;;
92;SDS011;16232;48.800;9.002;2023-09-18T14:20:34;1.43;;;0.97;;
92;SDS011;16232;48.800;9.002;2023-09-18T14:23:01;1.97;;;1.03;;
92;SDS011;16232;48.800;9.002;2023-09-18T14:25:33;2.60;;;1.27;;
92;SDS011;16232;48.800;9.002;2023-09-18T14:28:00;1.60;;;1.07;;
92;SDS011;16232;48.800;9.002;2023-09-18T14:30:28;2.27;;;0.90;;
92;SDS011;16232;48.800;9.002;2023-09-18T14:32:56;3.80;;;1.20;;
92;SDS011;16232;48.800;9.002;2023-09-18T14:35:26;3.70;;;1.30;;
92;SDS011;16232;48.800;9.002;2023-09-18T14:37:53;4.43;;;1.40;;
92;SDS011;16232;48.800;9.002;2023-09-18T14:40:21;2.87;;;1.00;;
92;SDS011;16232;48.800;9.002;2023-09-18T14:42:49;1.50;;;1.00;;
92;SDS011;16232;48.800;9.002;2023-09-18T14:45:17;3.07;;;0.90;;
92;SDS011;16232;48.800;9.002;2023-09-18T14:47:45;1.20;;;1.00;;
92;SDS011;16232;48.800;9.002;2023-09-18T14:50:12;2.03;;;1.00;;
92;SDS011;16232;48.800;9.002;2023-09-18T14:52:39;2.23;;;0.73;;
92;SDS011;16232;48.800;9.002;2023-09-18T14:55:07;5.17;;;1.27;;
92;SDS011;16232;48.800;9.002;2023-09-18T14:57:34;1.43;;;1.00;;
92;SDS011;16232;48.800;9.002;2023-09-18T15:00:04;1.10;;;0.90;;
92;SDS011;16232;48.800;9.002;2023-09-18T15:02:32;1.53;;;0.90;;
92;SDS011;16232;48.800;9.002;2023-09-18T15:05:00;1.50;;;0.93;;
92;SDS011;16232;48.800;9.002;2023-09-18T15:07:30;1.70;;;1.13;;
92;SDS011;16232;48.800;9.002;2023-09-18T15:09:57;1.70;;;1.07;;
92;SDS011;16232;48.800;9.002;2023-09-18T15:12:25;1.70;;;1.03;;
92;SDS011;16232;48.800;9.002;2023-09-18T15:14:52;2.10;;;1.20;;
92;SDS011;16232;48.800;9.002;2023-09-18T15:17:22;2.00;;;1.00;;
92;SDS011;16232;48.800;9.002;2023-09-18T15:19:50;1.77;;;0.93;;
92;SDS011;16232;48.800;9.002;2023-09-18T15:22:20;1.90;;;0.90;;
92;SDS011;16232;48.800;9.002;2023-09-18T15:24:48;2.43;;;0.77;;
92;SDS011;16232;48.800;9.002;2023-09-18T15:27:15;2.50;;;1.33;;
92;SDS011;16232;48.800;9.002;2023-09-18T15:29:43;1.90;;;1.00;;
92;SDS011;16232;48.800;9.002;2023-09-18T15:32:10;2.17;;;1.03;;
92;SDS011;16232;48.800;9.002;2023-09-18T15:34:39;3.03;;;0.80;;
92;SDS011;16232;48.800;9.002;2023-09-18T15:37:06;1.17;;;0.80;;
92;SDS011;16232;48.800;9.002;2023-09-18T15:39:33;1.27;;;0.90;;
92;SDS011;16232;48.800;9.002;2023-09-18T15:42:01;3.23;;;0.90;;
92;SDS011;16232;48.800;9.002;2023-09-18T15:44:28;1.70;;;0.90;;
92;SDS011;16232;48.800;9.002;2023-09-18T15:46:55;1.00;;;0.90;;
92;SDS011;16232;48.800;9.002;2023-09-18T15:49:23;3.47;;;1.07;;
92;SDS011;16232;48.800;9.002;2023-09-18T15:51:52;1.83;;;1.00;;
92;SDS011;16232;48.800;9.002;2023-09-18T15:54:20;1.87;;;0.97;;
92;SDS011;16232;48.800;9.002;2023-09-18T15:56:47;1.50;;;0.70;;
92;SDS011;16232;48.800;9.002;2023-09-18T15:59:15;3.87;;;1.03;;
92;SDS011;16232;48.800;9.002;2023-09-18T16:01:43;1.73;;;1.00;;
92;SDS011;16232;48.800;9.002;2023-09-18T16:04:10;1.80;;;0.90;;
92;SDS011;16232;48.800;9.002;2023-09-18T16:06:37;2.23;;;1.07;;
92;SDS011;16232;48.800;9.002;2023-09-18T16:09:06;3.07;;;1.00;;
92;SDS011;16232;48.800;9.002;2023-09-18T16:11:35;2.17;;;1.03;;
92;SDS011;16232;48.800;9.002;2023-09-18T16:14:02;2.43;;;1.20;;
92;SDS011;16232;48.800;9.002;2023-09-18T16:16:30;2.90;;;1.10;;
92;SDS011;16232;48.800;9.002;2023-09-18T16:18:57;1.83;;;1.40;;
92;SDS011;16232;48.800;9.002;2023-09-18T16:21:25;3.00;;;1.03;;
92;SDS011;16232;48.800;9.002;2023-09-18T16:23:52;2.33;;;1.07;;
92;SDS011;16232;48.800;9.002;2023-09-18T16:26:21;2.37;;;1.17;;
92;SDS011;16232;48.800;9.002;2023-09-18T16:28:48;1.30;;;1.00;;
92;SDS011;16232;48.800;9.002;2023-09-18T16:31:16;3.43;;;1.17;;
92;SDS011;16232;48.800;9.002;2023-09-18T16:33:43;2.20;;;1.10;;
92;SDS011;16232;48.800;9.002;2023-09-18T16:36:10;2.47;;;1.00;;
92;SDS011;16232;48.800;9.002;2023-09-18T16:38:38;2.00;;;1.20;;
92;SDS011;16232;48.800;9.002;2023-09-18T16:41:07;2.30;;;1.10;;
92;SDS011;16232;48.800;9.002;2023-09-18T16:43:35;2.13;;;1.03;;
92;SDS011;16232;48.800;9.002;2023-09-18T16:46:03;2.23;;;1.20;;
92;SDS011;16232;48.800;9.002;2023-09-18T16:48:30;3.80;;;0.90;;